Time;durP1;ratioP1;P1;durP2;ratioP2;P2;SDS_P1;SDS_P2;PMS_P1;PMS_P2;Temp;Humidity;BMP_temperature;BMP_pressure;BME280_temperature;BME280_humidity;BME280_pressure;Samples;Min_cycle;Max_cycle;Signal;HPM_P1;HPM_P2
2021/08/24 00:01:14;;;;;;;7.83;4.22;;;;;;;13.08;89.26;101051.53;1748692;82;21007;-77
2021/08/24 00:03:40;;;;;;;5.28;3.17;;;;;;;13.09;89.28;101057.23;1721880;82;21102;-77
2021/08/24 00:06:06;;;;;;;7.28;3.92;;;;;;;13.10;89.29;101054.05;1749879;81;21646;-78
2021/08/24 00:08:34;;;;;;;6.20;3.70;;;;;;;13.09;89.29;101051.88;1782295;80;20999;-78
2021/08/24 00:11:00;;;;;;;7.60;3.47;;;;;;;13.09;89.28;101053.72;1782537;80;21471;-78
2021/08/24 00:13:27;;;;;;;7.05;3.65;;;;;;;13.09;89.26;101049.20;1782042;80;21026;-78
2021/08/24 00:15:55;;;;;;;8.80;3.70;;;;;;;13.08;89.28;101051.53;1782163;80;21034;-77
2021/08/24 00:18:21;;;;;;;6.58;3.98;;;;;;;13.08;89.28;101052.88;1763120;80;21051;-77
2021/08/24 00:20:50;;;;;;;6.60;3.45;;;;;;;13.09;89.29;101054.55;1705776;84;21665;-77
2021/08/24 00:23:17;;;;;;;6.58;3.27;;;;;;;13.09;89.28;101054.55;1749673;82;21007;-77
2021/08/24 00:25:43;;;;;;;7.67;3.60;;;;;;;13.10;89.27;101058.08;1734423;82;21046;-77
2021/08/24 00:28:09;;;;;;;12.07;3.67;;;;;;;13.09;89.29;101050.54;1749528;81;21003;-77
2021/08/24 00:30:38;;;;;;;8.35;4.20;;;;;;;13.10;89.27;101058.91;1734358;82;21182;-77
2021/08/24 00:33:05;;;;;;;6.47;3.55;;;;;;;13.10;89.28;101055.39;1749729;81;20998;-77
2021/08/24 00:35:31;;;;;;;6.87;3.80;;;;;;;13.10;89.29;101061.59;1749182;81;21049;-77
2021/08/24 00:37:57;;;;;;;7.00;3.42;;;;;;;13.11;89.27;101063.77;1782557;80;20869;-77
2021/08/24 00:40:23;;;;;;;7.47;3.75;;;;;;;13.11;89.27;101064.61;1782241;80;21468;-77
2021/08/24 00:42:49;;;;;;;6.92;3.60;;;;;;;13.10;89.28;101066.95;1781416;80;21121;-77
2021/08/24 00:45:15;;;;;;;7.85;3.50;;;;;;;13.10;89.29;101060.25;1767898;80;20966;-77
2021/08/24 00:47:44;;;;;;;10.75;3.50;;;;;;;13.09;89.28;101064.42;1749043;81;21486;-77
2021/08/24 00:50:27;;;;;;;5.42;3.47;;;;;;;13.06;89.28;101060.22;1772109;81;21005;-77
2021/08/24 00:53:02;;;;;;;5.85;3.58;;;;;;;13.05;89.28;101055.89;1771589;80;20990;-77
2021/08/24 00:55:29;;;;;;;8.25;3.17;;;;;;;13.03;89.26;101064.09;1750706;81;21229;-78
2021/08/24 00:58:03;;;;;;;7.00;3.20;;;;;;;13.04;89.30;101064.92;1754161;81;20990;-77
2021/08/24 01:00:29;;;;;;;7.47;3.00;;;;;;;13.05;89.30;101061.25;1742790;80;21550;-77
2021/08/24 01:03:04;;;;;;;5.85;3.52;;;;;;;13.04;89.32;101059.57;1772135;81;21470;-77
2021/08/24 01:05:30;;;;;;;7.28;3.40;;;;;;;13.05;89.32;101071.13;1772048;80;20994;-77
2021/08/24 01:08:10;;;;;;;6.72;3.35;;;;;;;13.05;89.32;101063.93;1746048;81;21499;-78
2021/08/24 01:10:47;;;;;;;8.70;3.58;;;;;;;13.05;89.33;101071.97;1769415;79;20991;-77
2021/08/24 01:13:30;;;;;;;6.12;3.25;;;;;;;13.06;89.34;101068.75;1770548;81;21041;-77
2021/08/24 01:16:39;;;;;;;6.45;3.47;;;;;;;13.05;89.33;101071.97;1770837;81;20991;-78
2021/08/24 01:19:36;;;;;;;7.97;3.37;;;;;;;13.08;89.36;101068.10;1770835;81;21033;-78
2021/08/24 01:22:39;;;;;;;6.72;3.02;;;;;;;13.06;89.36;101065.58;1771388;81;21216;-77
2021/08/24 01:25:18;;;;;;;6.17;3.30;;;;;;;13.06;89.36;101077.63;1749791;81;20989;-77
2021/08/24 01:27:58;;;;;;;8.10;3.33;;;;;;;13.06;89.35;101076.79;1770669;79;21094;-77
2021/08/24 01:30:53;;;;;;;5.22;2.80;;;;;;;13.06;89.35;101077.63;1729110;82;21565;-77
2021/08/24 01:33:38;;;;;;;8.33;3.85;;;;;;;13.06;89.35;101074.95;1739277;81;21065;-78
2021/08/24 01:36:19;;;;;;;6.83;3.17;;;;;;;13.05;89.34;101079.16;1756798;81;21287;-78
2021/08/24 01:39:05;;;;;;;8.03;3.10;;;;;;;13.05;89.36;101075.98;1770789;80;22168;-78
2021/08/24 01:42:01;;;;;;;5.67;3.15;;;;;;;13.06;89.36;101081.64;1769963;81;21605;-78
2021/08/24 01:44:30;;;;;;;6.47;2.62;;;;;;;13.06;89.34;101082.98;1770946;81;21548;-78
2021/08/24 01:47:01;;;;;;;6.40;2.87;;;;;;;13.06;89.36;101083.48;1771531;81;21065;-77
2021/08/24 01:49:40;;;;;;;8.63;3.27;;;;;;;13.05;89.33;101086.69;1770254;81;21223;-78
2021/08/24 01:52:10;;;;;;;8.63;3.17;;;;;;;13.05;89.35;101084.02;1771450;81;20991;-78
2021/08/24 01:54:44;;;;;;;5.83;2.45;;;;;;;13.04;89.34;101086.34;1760207;80;21009;-78
2021/08/24 01:57:24;;;;;;;10.50;2.95;;;;;;;13.03;89.33;101089.52;1741230;82;21008;-78
2021/08/24 01:59:57;;;;;;;11.40;3.15;;;;;;;13.02;89.34;101088.34;1748796;82;21042;-78
2021/08/24 02:02:26;;;;;;;6.05;3.08;;;;;;;13.01;89.36;101092.05;1749932;81;21131;-78
2021/08/24 02:05:02;;;;;;;5.53;3.15;;;;;;;12.98;89.33;101087.84;1750275;81;21035;-78
2021/08/24 02:07:30;;;;;;;8.70;3.08;;;;;;;12.99;89.34;101088.68;1756023;80;21464;-78
2021/08/24 02:09:59;;;;;;;9.45;3.15;;;;;;;12.98;89.32;101096.41;1757196;81;21026;-78
2021/08/24 02:12:26;;;;;;;7.42;3.10;;;;;;;12.97;89.33;101090.70;1757686;81;21015;-78
2021/08/24 02:14:52;;;;;;;7.42;2.72;;;;;;;12.94;89.33;101092.38;1757336;81;21096;-78
2021/08/24 02:17:20;;;;;;;8.40;3.22;;;;;;;12.93;89.31;101096.06;1757395;81;21003;-78
2021/08/24 02:19:57;;;;;;;6.70;3.12;;;;;;;12.90;89.32;101093.22;1757369;81;20995;-78
2021/08/24 02:22:30;;;;;;;5.22;2.42;;;;;;;12.89;89.36;101092.04;1727621;82;20988;-78
2021/08/24 02:25:13;;;;;;;8.63;3.22;;;;;;;12.87;89.33;101096.73;1750288;82;21508;-78
2021/08/24 02:27:48;;;;;;;3.92;2.67;;;;;;;12.86;89.35;101093.72;1750046;81;21157;-78
2021/08/24 02:30:14;;;;;;;10.53;2.98;;;;;;;12.84;89.35;101093.06;1750011;81;21043;-78
2021/08/24 02:32:44;;;;;;;8.08;2.95;;;;;;;12.83;89.36;101099.41;1749732;82;20974;-78
2021/08/24 02:35:22;;;;;;;8.68;3.40;;;;;;;12.81;89.33;101104.91;1762329;80;21600;-78
2021/08/24 02:38:04;;;;;;;6.60;2.90;;;;;;;12.79;89.35;101099.41;1794872;80;21338;-78
2021/08/24 02:40:58;;;;;;;6.70;2.62;;;;;;;12.79;89.35;101104.76;1785770;80;21035;-78
2021/08/24 02:44:15;;;;;;;8.03;3.12;;;;;;;12.79;89.35;101112.79;1794013;79;21020;-77
2021/08/24 02:46:43;;;;;;;9.08;4.10;;;;;;;12.78;89.35;101109.77;1786231;80;21058;-77
2021/08/24 02:49:13;;;;;;;7.92;3.47;;;;;;;12.77;89.33;101114.28;1794584;80;21511;-77
2021/08/24 02:51:39;;;;;;;;;;;;;;;12.77;89.36;101120.97;1759923;80;21078;-77
2021/08/24 02:54:16;;;;;;;7.78;3.42;;;;;;;12.77;89.36;101116.14;1746932;82;21919;-77
2021/08/24 02:56:42;;;;;;;10.08;3.00;;;;;;;12.76;89.33;101115.30;1746710;82;21062;-77
2021/08/24 02:59:08;;;;;;;7.50;3.17;;;;;;;12.78;89.34;101117.80;1747447;81;21468;-77
2021/08/24 03:01:35;;;;;;;8.55;3.45;;;;;;;12.76;89.33;101115.30;1747218;81;21031;-77
2021/08/24 03:04:03;;;;;;;12.58;3.98;;;;;;;12.79;89.35;101115.47;1746993;82;21047;-77
2021/08/24 03:06:29;;;;;;;9.18;3.20;;;;;;;12.79;89.35;101118.14;1747083;82;21128;-77
2021/08/24 03:08:55;;;;;;;10.63;3.27;;;;;;;12.79;89.34;101123.49;1747078;80;21004;-77
2021/08/24 03:11:23;;;;;;;7.45;2.95;;;;;;;12.79;89.35;101125.67;1758244;81;21014;-77
2021/08/24 03:13:59;;;;;;;6.35;3.30;;;;;;;12.80;89.34;101121.16;1764835;81;21038;-77
2021/08/24 03:16:33;;;;;;;6.97;2.98;;;;;;;12.78;89.32;101127.16;1761377;81;21010;-77
2021/08/24 03:19:06;;;;;;;5.58;2.90;;;;;;;12.78;89.34;101129.34;1758644;81;21190;-77
2021/08/24 03:21:35;;;;;;;6.20;3.35;;;;;;;12.78;89.31;101128.50;1758673;81;21054;-77
2021/08/24 03:24:01;;;;;;;9.10;2.87;;;;;;;12.78;89.34;101131.18;1758620;81;21057;-76
2021/08/24 03:26:30;;;;;;;10.32;3.87;;;;;;;12.78;89.34;101129.84;1758641;81;20987;-77
2021/08/24 03:28:56;;;;;;;5.53;3.47;;;;;;;12.79;89.33;101131.52;1758437;81;20999;-76
2021/08/24 03:31:22;;;;;;;6.40;3.17;;;;;;;12.78;89.35;101128.50;1758507;81;21113;-76
2021/08/24 03:33:49;;;;;;;10.43;3.65;;;;;;;12.79;89.36;101138.22;1758639;81;21503;-76
2021/08/24 03:36:15;;;;;;;6.35;3.50;;;;;;;12.79;89.35;101140.89;1788028;79;21098;-76
2021/08/24 03:38:41;;;;;;;6.35;3.30;;;;;;;12.79;89.36;101135.54;1797988;79;21002;-76
2021/08/24 03:41:09;;;;;;;6.12;2.98;;;;;;;12.80;89.34;101141.23;1796412;79;21045;-76
2021/08/24 03:43:35;;;;;;;5.75;2.90;;;;;;;12.80;89.34;101142.58;1797972;79;21920;-77
2021/08/24 03:46:02;;;;;;;9.35;3.17;;;;;;;12.80;89.35;101145.25;1797295;79;21018;-76
2021/08/24 03:48:28;;;;;;;6.37;2.75;;;;;;;12.79;89.35;101148.92;1797500;79;21015;-77
2021/08/24 03:50:54;;;;;;;10.18;3.55;;;;;;;12.80;89.35;101147.92;1777609;79;21041;-76
2021/08/24 03:53:20;;;;;;;5.75;3.08;;;;;;;12.81;89.34;101156.27;1758431;81;20991;-76
2021/08/24 03:55:46;;;;;;;10.70;3.77;;;;;;;12.80;89.34;101152.78;1758869;81;21488;-77
2021/08/24 03:58:13;;;;;;;8.33;2.90;;;;;;;12.81;89.34;101158.45;1736406;81;21022;-77
2021/08/24 04:00:43;;;;;;;8.03;2.85;;;;;;;12.81;89.35;101161.12;1733581;82;20971;-77
2021/08/24 04:03:09;;;;;;;8.65;3.00;;;;;;;12.82;89.35;101168.66;1733058;81;21043;-77
2021/08/24 04:05:35;;;;;;;7.70;3.27;;;;;;;12.83;89.36;101169.01;1734978;81;20966;-77
2021/08/24 04:08:01;;;;;;;7.08;3.25;;;;;;;12.84;89.35;101172.03;1734481;82;21140;-77
2021/08/24 04:10:27;;;;;;;7.22;3.17;;;;;;;12.84;89.36;101176.85;1729078;82;21031;-77
2021/08/24 04:12:53;;;;;;;6.22;3.12;;;;;;;12.85;89.34;101171.84;1724445;83;21074;-77
2021/08/24 04:15:19;;;;;;;6.47;3.40;;;;;;;12.86;89.35;101176.70;1724437;83;21456;-77
2021/08/24 04:17:45;;;;;;;6.62;3.10;;;;;;;12.86;89.32;101178.05;1726557;81;21046;-77
2021/08/24 04:20:12;;;;;;;6.67;3.02;;;;;;;12.88;89.32;101182.72;1750451;81;21078;-77
2021/08/24 04:22:44;;;;;;;10.85;3.62;;;;;;;12.88;89.33;101190.75;1756230;81;20932;-77
2021/08/24 04:25:10;;;;;;;8.85;3.80;;;;;;;12.90;89.31;101187.42;1755957;81;20999;-76
2021/08/24 04:27:36;;;;;;;8.90;3.80;;;;;;;12.91;89.33;101193.13;1755984;81;21027;-76
2021/08/24 04:30:04;;;;;;;10.20;2.87;;;;;;;12.92;89.32;101185.40;1756025;81;20999;-77
2021/08/24 04:32:30;;;;;;;6.85;3.75;;;;;;;12.93;89.32;101195.11;1756027;81;21228;-77
2021/08/24 04:34:56;;;;;;;8.63;3.02;;;;;;;12.94;89.32;101192.78;1756072;81;20988;-77
2021/08/24 04:37:22;;;;;;;8.30;3.12;;;;;;;12.96;89.33;101192.11;1756069;81;20999;-77
2021/08/24 04:39:48;;;;;;;9.33;3.40;;;;;;;12.97;89.32;101196.47;1756206;81;21664;-77
2021/08/24 04:42:15;;;;;;;6.95;3.12;;;;;;;12.98;89.31;101198.15;1755963;81;20983;-77
2021/08/24 04:44:41;;;;;;;11.70;3.92;;;;;;;13.00;89.30;101198.80;1755990;81;21110;-77
2021/08/24 04:47:07;;;;;;;10.93;3.33;;;;;;;12.99;89.33;101202.48;1755696;81;21034;-77
2021/08/24 04:49:33;;;;;;;10.85;3.27;;;;;;;13.01;89.31;101212.54;1755812;81;20980;-77
2021/08/24 04:51:59;;;;;;;7.20;2.90;;;;;;;13.01;89.32;101213.38;1756078;81;21463;-77
2021/08/24 04:54:25;;;;;;;9.65;2.70;;;;;;;13.02;89.31;101218.20;1733326;81;20993;-77
2021/08/24 04:56:51;;;;;;;9.05;2.92;;;;;;;13.03;89.32;101215.38;1729940;80;21670;-77
2021/08/24 04:59:17;;;;;;;7.15;2.55;;;;;;;13.03;89.30;101210.52;1785404;80;21409;-76
2021/08/24 05:01:43;;;;;;;10.70;3.92;;;;;;;13.05;89.30;101215.72;1755600;81;20911;-77
2021/08/24 05:04:09;;;;;;;6.42;3.58;;;;;;;13.06;89.28;101218.22;1754691;81;20990;-77
2021/08/24 05:06:35;;;;;;;9.13;2.90;;;;;;;13.07;89.31;101219.91;1755482;81;21011;-78
2021/08/24 05:09:01;;;;;;;10.45;3.50;;;;;;;13.09;89.28;101217.91;1754785;81;21105;-77
2021/08/24 05:11:27;;;;;;;7.45;3.62;;;;;;;13.10;89.26;101215.58;1759772;81;21494;-77
2021/08/24 05:13:53;;;;;;;7.05;3.30;;;;;;;13.14;89.26;101221.44;1762892;81;20946;-77
2021/08/24 05:16:19;;;;;;;6.87;2.60;;;;;;;13.15;89.25;101230.66;1767835;81;21557;-77
2021/08/24 05:18:45;;;;;;;7.47;3.27;;;;;;;13.19;89.24;101217.78;1783331;80;21041;-77
2021/08/24 05:21:15;;;;;;;5.58;2.67;;;;;;;13.22;89.23;101220.11;1781336;80;21088;-77
2021/08/24 05:23:42;;;;;;;8.50;3.65;;;;;;;13.26;89.24;101225.48;1746740;81;21093;-77
2021/08/24 05:26:10;;;;;;;7.22;2.77;;;;;;;13.30;89.22;101228.16;1775691;80;21425;-78
2021/08/24 05:28:36;;;;;;;9.23;2.70;;;;;;;13.35;89.20;101230.66;1735482;82;20998;-77
2021/08/24 05:31:02;;;;;;;6.37;2.50;;;;;;;13.38;89.20;101237.02;1767702;81;21059;-77
2021/08/24 05:33:28;;;;;;;6.37;2.55;;;;;;;13.42;89.19;101238.36;1735577;82;21044;-77
2021/08/24 05:35:54;;;;;;;12.07;3.77;;;;;;;13.45;89.18;101246.06;1767492;81;21580;-77
2021/08/24 05:38:20;;;;;;;7.55;2.87;;;;;;;13.48;89.15;101244.88;1735007;82;21488;-77
2021/08/24 05:40:46;;;;;;;8.95;3.02;;;;;;;13.51;89.13;101250.74;1769074;81;21018;-77
2021/08/24 05:43:12;;;;;;;7.85;2.95;;;;;;;13.54;89.11;101256.80;1746247;81;20986;-77
2021/08/24 05:45:38;;;;;;;8.55;3.35;;;;;;;13.56;89.10;101257.45;1737563;81;21094;-77
2021/08/24 05:48:04;;;;;;;8.25;2.67;;;;;;;13.58;89.11;101263.49;1737358;82;21036;-77
2021/08/24 05:50:30;;;;;;;7.45;2.83;;;;;;;13.59;89.08;101258.45;1764574;81;21499;-77
2021/08/24 05:52:56;;;;;;;8.15;3.37;;;;;;;13.61;89.06;101265.84;1768854;81;20947;-77
2021/08/24 05:55:22;;;;;;;6.47;2.72;;;;;;;13.63;89.04;101267.83;1766011;81;20887;-77
2021/08/24 05:57:51;;;;;;;9.73;2.80;;;;;;;13.67;89.02;101267.83;1769479;81;21150;-77
2021/08/24 06:00:18;;;;;;;8.10;2.65;;;;;;;13.72;89.00;101268.18;1753022;81;21008;-77
2021/08/24 06:02:45;;;;;;;6.22;2.90;;;;;;;13.77;88.98;101276.03;1739304;82;21072;-77
2021/08/24 06:05:11;;;;;;;6.72;2.83;;;;;;;13.78;88.94;101272.36;1764801;81;21015;-77
2021/08/24 06:07:37;;;;;;;7.85;2.50;;;;;;;13.81;88.91;101279.22;1766066;81;21062;-77
2021/08/24 06:10:05;;;;;;;7.25;2.55;;;;;;;13.84;88.87;101274.35;1766542;80;21144;-77
2021/08/24 06:12:31;;;;;;;4.95;2.70;;;;;;;13.90;88.85;101276.84;1780024;79;20993;-77
2021/08/24 06:14:57;;;;;;;9.73;2.90;;;;;;;13.94;88.80;101282.20;1780533;80;20937;-77
2021/08/24 06:17:23;;;;;;;10.85;2.77;;;;;;;14.01;88.78;101283.20;1780323;80;20977;-77
2021/08/24 06:19:50;;;;;;;7.03;2.95;;;;;;;14.04;88.71;101286.06;1774527;80;21073;-77
2021/08/24 06:22:16;;;;;;;4.65;2.65;;;;;;;14.04;88.64;101285.53;1749034;80;21803;-77
2021/08/24 06:24:42;;;;;;;9.13;3.05;;;;;;;14.06;88.59;101294.27;1755236;81;21468;-77
2021/08/24 06:27:08;;;;;;;7.70;2.80;;;;;;;14.06;88.55;101290.25;1755168;81;21011;-78
2021/08/24 06:29:33;;;;;;;5.53;2.95;;;;;;;14.07;88.49;101298.63;1754833;81;20907;-77
2021/08/24 06:32:00;;;;;;;6.30;2.58;;;;;;;14.06;88.41;101292.92;1729821;83;20934;-77
2021/08/24 06:34:26;;;;;;;6.45;2.77;;;;;;;14.10;88.38;101296.95;1704203;83;21148;-78
2021/08/24 06:36:52;;;;;;;5.85;2.80;;;;;;;14.14;88.29;101299.62;1729576;82;21522;-77
2021/08/24 06:39:19;;;;;;;6.58;2.98;;;;;;;14.23;88.25;101294.56;1729642;82;20966;-77
2021/08/24 06:41:45;;;;;;;7.00;2.67;;;;;;;14.31;88.21;101299.91;1729617;82;20974;-78
2021/08/24 06:44:11;;;;;;;7.87;3.00;;;;;;;14.32;88.11;101298.88;1750321;82;21019;-78
2021/08/24 06:46:37;;;;;;;7.87;2.58;;;;;;;14.33;88.01;101301.06;1751097;81;21473;-78
2021/08/24 06:49:03;;;;;;;4.45;2.22;;;;;;;14.39;87.96;101303.12;1740179;81;21019;-77
2021/08/24 06:51:29;;;;;;;6.75;2.70;;;;;;;14.46;87.84;101303.56;1749634;80;21050;-77
2021/08/24 06:53:56;;;;;;;6.40;2.45;;;;;;;14.52;87.74;101305.24;1776105;80;21005;-78
2021/08/24 06:56:22;;;;;;;10.58;3.27;;;;;;;14.55;87.66;101306.23;1778962;80;21062;-78
2021/08/24 06:58:48;;;;;;;4.37;2.80;;;;;;;14.60;87.62;101311.94;1761382;80;21135;-78
2021/08/24 07:01:19;;;;;;;5.78;3.00;;;;;;;14.61;87.49;101309.56;1758679;81;21451;-78
2021/08/24 07:03:45;;;;;;;7.67;3.08;;;;;;;14.58;87.39;101309.91;1755266;81;21525;-78
2021/08/24 07:06:11;;;;;;;17.12;6.33;;;;;;;14.53;87.23;101306.39;1760568;80;21018;-77
2021/08/24 07:08:37;;;;;;;8.18;3.47;;;;;;;14.55;87.15;101308.92;1752081;80;21014;-77
2021/08/24 07:11:03;;;;;;;8.40;3.17;;;;;;;14.55;87.05;101308.92;1775851;79;21120;-77
2021/08/24 07:13:30;;;;;;;7.58;2.87;;;;;;;14.59;87.00;101319.14;1759874;80;21026;-78
2021/08/24 07:15:56;;;;;;;7.42;2.83;;;;;;;14.64;86.90;101322.63;1724803;81;21016;-78
2021/08/24 07:18:23;;;;;;;6.97;2.30;;;;;;;14.68;86.83;101318.59;1732875;82;21677;-78
2021/08/24 07:20:53;;;;;;;9.23;2.87;;;;;;;14.69;86.73;101317.59;1720546;82;21925;-78
2021/08/24 07:23:20;;;;;;;5.53;2.50;;;;;;;14.71;86.63;101318.23;1724385;82;21727;-77
2021/08/24 07:25:48;;;;;;;10.65;2.90;;;;;;;14.78;86.54;101324.59;1752487;81;21046;-77
2021/08/24 07:28:14;;;;;;;8.23;2.67;;;;;;;14.81;86.45;101321.58;1734376;80;21503;-77
2021/08/24 07:30:44;;;;;;;6.17;2.25;;;;;;;14.87;86.35;101316.84;1756113;81;21011;-76
2021/08/24 07:33:11;;;;;;;8.10;2.35;;;;;;;14.94;86.22;101320.50;1737488;81;21065;-76
2021/08/24 07:35:37;;;;;;;9.58;2.83;;;;;;;14.97;86.10;101314.77;1732777;82;21504;-76
2021/08/24 07:38:03;;;;;;;6.05;2.72;;;;;;;14.97;85.95;101322.33;1738909;81;21024;-76
2021/08/24 07:40:29;;;;;;;6.10;2.95;;;;;;;15.00;85.81;101322.48;1731752;81;21014;-75
2021/08/24 07:42:55;;;;;;;6.33;2.60;;;;;;;15.07;85.72;101325.29;1725991;82;21031;-74
2021/08/24 07:45:22;;;;;;;9.83;2.87;;;;;;;15.10;85.57;101327.62;1752771;81;21027;-76
2021/08/24 07:47:48;;;;;;;5.45;3.15;;;;;;;15.12;85.46;101333.17;1749836;81;21162;-76
2021/08/24 07:50:14;;;;;;;7.65;3.85;;;;;;;15.26;85.32;101334.27;1757951;81;21113;-76
2021/08/24 07:52:40;;;;;;;5.55;3.30;;;;;;;15.49;85.21;101331.94;1774407;80;21011;-76
2021/08/24 07:55:07;;;;;;;6.85;2.70;;;;;;;15.71;85.04;101337.50;1772037;80;21468;-76
2021/08/24 07:57:33;;;;;;;8.93;2.92;;;;;;;16.06;84.87;101342.23;1734869;80;21015;-76
2021/08/24 07:59:59;;;;;;;6.40;2.40;;;;;;;16.20;84.62;101338.73;1727124;83;21051;-76
2021/08/24 08:02:25;;;;;;;6.80;3.20;;;;;;;16.30;84.44;101338.46;1741384;82;21184;-76
2021/08/24 08:04:51;;;;;;;8.03;2.67;;;;;;;16.31;84.23;101330.72;1738522;82;21591;-76
2021/08/24 08:07:17;;;;;;;7.75;2.22;;;;;;;16.41;84.03;101338.85;1755613;80;21581;-76
2021/08/24 08:09:43;;;;;;;6.35;2.22;;;;;;;16.46;83.78;101343.19;1744793;80;21001;-76
2021/08/24 08:12:10;;;;;;;4.58;2.50;;;;;;;16.60;83.46;101346.93;1777025;80;21897;-76
2021/08/24 08:14:37;;;;;;;6.70;2.90;;;;;;;16.69;83.07;101345.80;1761306;80;21484;-77
2021/08/24 08:17:03;;;;;;;6.78;2.30;;;;;;;16.72;82.72;101356.70;1748709;82;20998;-76
2021/08/24 08:19:29;;;;;;;4.12;2.27;;;;;;;16.87;82.46;101356.20;1771323;79;21061;-77
2021/08/24 08:21:55;;;;;;;9.95;2.50;;;;;;;17.23;82.15;101355.72;1779456;80;20985;-77
2021/08/24 08:24:21;;;;;;;4.97;2.60;;;;;;;17.31;81.71;101369.06;1779366;80;21497;-76
2021/08/24 08:26:47;;;;;;;3.75;2.08;;;;;;;17.30;81.14;101360.67;1753911;80;21494;-76
2021/08/24 08:29:13;;;;;;;7.47;2.10;;;;;;;17.24;80.58;101365.45;1765977;80;20914;-76
2021/08/24 08:31:42;;;;;;;5.28;1.60;;;;;;;17.35;80.19;101369.02;1746427;82;20991;-77
2021/08/24 08:34:08;;;;;;;7.05;2.42;;;;;;;17.46;79.60;101375.27;1771492;80;21492;-77
2021/08/24 08:36:34;;;;;;;3.35;1.67;;;;;;;17.69;79.18;101359.45;1775706;80;21875;-77
2021/08/24 08:39:00;;;;;;;4.25;1.70;;;;;;;17.78;78.58;101378.52;1776844;80;20991;-77
2021/08/24 08:41:57;;;;;;;5.85;2.15;;;;;;;17.81;77.83;101376.78;1769762;80;21039;-77
2021/08/24 08:45:14;;;;;;;5.03;1.95;;;;;;;17.88;77.23;101373.63;1752982;80;21476;-76
2021/08/24 08:48:04;;;;;;;5.58;1.65;;;;;;;17.97;76.58;101375.19;1759990;81;21681;-76
2021/08/24 08:50:55;;;;;;;5.03;1.65;;;;;;;18.08;76.15;101388.16;1760102;81;21367;-77
2021/08/24 08:53:32;;;;;;;6.05;2.25;;;;;;;17.96;75.50;101383.80;1759691;81;21010;-77
2021/08/24 08:56:12;;;;;;;9.93;3.98;;;;;;;17.81;75.16;101382.17;1755233;81;20999;-77
2021/08/24 08:58:53;;;;;;;6.05;2.75;;;;;;;17.66;74.62;101375.48;1719577;81;21506;-77
2021/08/24 09:01:26;;;;;;;2.92;1.62;;;;;;;17.59;74.17;101398.06;1768110;80;21014;-77
2021/08/24 09:04:16;;;;;;;3.90;2.15;;;;;;;17.65;73.38;101406.73;1786501;79;21278;-77
2021/08/24 09:06:44;;;;;;;2.22;1.70;;;;;;;17.79;72.87;101398.58;1738325;82;21002;-77
2021/08/24 09:09:10;;;;;;;6.17;2.20;;;;;;;17.86;72.37;101409.44;1747527;81;21007;-76
2021/08/24 09:11:39;;;;;;;5.97;2.80;;;;;;;17.94;71.88;101407.97;1753509;81;21034;-77
2021/08/24 09:14:18;;;;;;;10.35;3.52;;;;;;;18.12;71.53;101412.91;1729122;82;21077;-76
2021/08/24 09:16:49;;;;;;;5.67;1.60;;;;;;;18.17;71.00;101403.18;1753963;80;21082;-77
2021/08/24 09:19:20;;;;;;;5.55;2.60;;;;;;;18.33;70.71;101411.53;1756433;80;21073;-77
2021/08/24 09:21:46;;;;;;;7.40;2.02;;;;;;;18.39;70.26;101400.77;1776131;80;21040;-77
2021/08/24 09:24:20;;;;;;;3.83;1.57;;;;;;;18.45;69.88;101420.23;1774926;80;21029;-75
2021/08/24 09:27:02;;;;;;;7.17;2.50;;;;;;;18.43;69.53;101416.91;1746979;80;21091;-76
2021/08/24 09:29:36;;;;;;;6.53;1.45;;;;;;;18.30;68.79;101419.99;1707977;80;21131;-76
2021/08/24 09:32:04;;;;;;;3.17;1.40;;;;;;;18.19;68.34;101418.66;1781206;80;21041;-76
2021/08/24 09:34:35;;;;;;;3.55;1.95;;;;;;;18.13;67.90;101421.30;1743435;80;21013;-77
2021/08/24 09:37:01;;;;;;;4.58;1.45;;;;;;;18.04;67.32;101426.53;1767499;80;21032;-77
2021/08/24 09:39:58;;;;;;;2.75;1.62;;;;;;;18.02;67.14;101418.61;1768691;80;21069;-77
2021/08/24 09:42:32;;;;;;;4.95;1.90;;;;;;;17.92;66.72;101421.64;1773962;80;21068;-76
2021/08/24 09:45:03;;;;;;;4.87;2.27;;;;;;;17.92;66.48;101419.45;1736661;81;21044;-77
2021/08/24 09:47:29;;;;;;;2.80;1.52;;;;;;;17.97;66.01;101417.02;1754176;81;21069;-76
2021/08/24 09:50:03;;;;;;;3.20;1.72;;;;;;;18.10;66.03;101420.34;1766707;80;21070;-77
2021/08/24 09:52:30;;;;;;;2.87;1.40;;;;;;;18.17;65.72;101418.55;1747481;81;21016;-76
2021/08/24 09:55:07;;;;;;;3.87;1.30;;;;;;;18.32;65.52;101426.89;1754870;81;21724;-76
2021/08/24 09:57:49;;;;;;;4.78;1.20;;;;;;;18.38;65.27;101435.56;1759593;81;21070;-75
2021/08/24 10:00:39;;;;;;;8.90;5.97;;;;;;;18.37;64.78;101431.17;1755733;81;21478;-75
2021/08/24 10:03:21;;;;;;;10.82;7.35;;;;;;;18.40;64.28;101441.59;1757634;81;21702;-75
2021/08/24 10:05:47;;;;;;;2.55;1.45;;;;;;;18.56;63.93;101441.02;1734689;81;21042;-76
2021/08/24 10:08:27;;;;;;;5.08;1.70;;;;;;;18.51;63.78;101447.55;1743217;82;21039;-75
2021/08/24 10:11:13;;;;;;;3.33;1.47;;;;;;;18.42;63.58;101443.59;1772025;79;21429;-75
2021/08/24 10:13:43;;;;;;;5.25;1.32;;;;;;;18.44;63.52;101442.88;1771406;80;21576;-77
2021/08/24 10:16:26;;;;;;;7.40;1.62;;;;;;;18.55;63.44;101451.50;1754488;80;21098;-76
2021/08/24 10:18:56;;;;;;;3.85;1.50;;;;;;;18.67;63.44;101444.53;1743808;81;21007;-76
2021/08/24 10:21:34;;;;;;;4.87;1.27;;;;;;;18.77;63.37;101443.66;1728796;81;21074;-74
2021/08/24 10:24:01;;;;;;;5.42;1.60;;;;;;;18.83;63.11;101446.92;1750517;82;21486;-76
2021/08/24 10:26:33;;;;;;;5.25;1.27;;;;;;;18.81;63.11;101446.30;1765718;81;21197;-76
2021/08/24 10:29:03;;;;;;;4.62;1.15;;;;;;;18.84;62.94;101445.89;1765521;81;20948;-76
2021/08/24 10:31:53;;;;;;;;;;;;;;;18.71;62.59;101460.17;1752946;82;21000;-76
2021/08/24 10:34:31;;;;;;;4.90;1.25;;;;;;;18.56;62.42;101451.83;1765868;81;21189;-76
2021/08/24 10:37:31;;;;;;;7.70;2.65;;;;;;;18.56;62.43;101454.02;1750805;82;21020;-76
2021/08/24 10:40:12;;;;;;;8.58;2.75;;;;;;;18.59;62.49;101461.73;1765829;81;20995;-76
2021/08/24 10:42:41;;;;;;;4.95;2.00;;;;;;;18.50;62.37;101459.34;1750782;82;21367;-76
2021/08/24 10:45:34;;;;;;;3.60;1.55;;;;;;;18.52;62.47;101459.48;1766088;81;21476;-76
2021/08/24 10:48:04;;;;;;;5.35;1.20;;;;;;;18.57;62.35;101463.80;1754527;81;21088;-76
2021/08/24 10:50:56;;;;;;;;;;;;;;;18.62;62.37;101469.95;1756454;81;21007;-76
2021/08/24 10:53:51;;;;;;;3.02;1.10;;;;;;;18.60;62.40;101472.86;1765916;81;20162;-76
2021/08/24 10:56:33;;;;;;;7.28;1.60;;;;;;;18.52;62.39;101470.80;1754178;81;21020;-75
2021/08/24 10:59:11;;;;;;;1.70;1.15;;;;;;;18.48;62.43;101474.38;1750914;82;20978;-76
2021/08/24 11:01:48;;;;;;;2.47;1.50;;;;;;;18.50;62.51;101473.69;1749505;81;21118;-75
2021/08/24 11:04:58;;;;;;;2.22;1.27;;;;;;;18.68;62.64;101478.64;1736535;82;21482;-76
2021/08/24 11:07:38;;;;;;;6.72;1.47;;;;;;;18.69;62.62;101477.59;1749274;82;21471;-76
2021/08/24 11:10:31;;;;;;;2.70;1.22;;;;;;;18.68;62.53;101475.94;1750511;82;20999;-76
2021/08/24 11:13:27;;;;;;;3.67;1.30;;;;;;;18.70;62.42;101483.32;1698821;81;21542;-76
2021/08/24 11:16:35;;;;;;;4.08;1.25;;;;;;;18.82;62.42;101488.52;1756825;81;21115;-76
2021/08/24 11:19:28;;;;;;;3.12;1.55;;;;;;;18.85;62.27;101484.06;1756928;81;21047;-76
2021/08/24 11:22:29;;;;;;;4.95;1.87;;;;;;;18.85;62.14;101486.26;1756980;81;21445;-76
2021/08/24 11:25:21;;;;;;;1.57;1.30;;;;;;;18.79;62.03;101484.32;1756909;81;21022;-76
2021/08/24 11:28:21;;;;;;;3.90;1.50;;;;;;;18.71;61.91;101483.65;1756445;81;20992;-76
2021/08/24 11:30:54;;;;;;;4.87;1.87;;;;;;;18.69;61.81;101477.59;1756264;81;22090;-76
2021/08/24 11:33:34;;;;;;;2.92;1.60;;;;;;;18.65;61.69;101476.30;1756843;81;21058;-76
2021/08/24 11:36:10;;;;;;;4.58;1.60;;;;;;;18.59;61.72;101480.64;1756913;81;21476;-75
2021/08/24 11:38:43;;;;;;;3.45;1.70;;;;;;;18.35;61.58;101475.12;1757084;81;21543;-76
2021/08/24 11:41:15;;;;;;;6.28;2.60;;;;;;;18.28;61.71;101474.22;1756834;81;20987;-76
2021/08/24 11:43:50;;;;;;;7.92;1.75;;;;;;;18.31;61.82;101471.13;1729094;81;21920;-76
2021/08/24 11:46:23;;;;;;;4.35;2.37;;;;;;;18.42;61.96;101471.12;1756910;81;21031;-76